Time;durP1;ratioP1;P1;durP2;ratioP2;P2;SDS_P1;SDS_P2;PMS_P1;PMS_P2;Temp;Humidity;BMP_temperature;BMP_pressure;BME280_temperature;BME280_humidity;BME280_pressure;Samples;Min_cycle;Max_cycle;Signal;HPM_P1;HPM_P2
2022/02/08 00:00:10;;;;;;;7.55;2.10;;;;;;;;;;5029852;28;20029;-59
2022/02/08 00:02:41;;;;;;;11.73;2.22;;;;;;;;;;5035393;28;20025;-59
2022/02/08 00:05:09;;;;;;;6.63;2.08;;;;;;;;;;5033815;28;20502;-60
2022/02/08 00:07:34;;;;;;;7.28;2.50;;;;;;;;;;5032746;28;20084;-59
2022/02/08 00:09:59;;;;;;;10.80;2.22;;;;;;;;;;5018658;28;20041;-59
2022/02/08 00:12:25;;;;;;;7.03;2.13;;;;;;;;;;5042618;28;20031;-59
2022/02/08 00:14:52;;;;;;;8.13;1.83;;;;;;;;;;5032163;28;20052;-59
2022/02/08 00:17:17;;;;;;;9.38;2.40;;;;;;;;;;5033374;28;20037;-58
2022/02/08 00:19:42;;;;;;;8.93;2.40;;;;;;;;;;5033293;28;20044;-58
2022/02/08 00:22:07;;;;;;;9.75;2.58;;;;;;;;;;5028479;28;20018;-59
2022/02/08 00:24:33;;;;;;;6.80;2.05;;;;;;;;;;5021009;28;20034;-60
2022/02/08 00:26:58;;;;;;;9.40;2.15;;;;;;;;;;5049455;28;20087;-59
2022/02/08 00:29:23;;;;;;;7.32;2.17;;;;;;;;;;5033407;28;20041;-60
2022/02/08 00:31:49;;;;;;;5.90;1.85;;;;;;;;;;5030979;28;20072;-59
2022/02/08 00:34:14;;;;;;;6.85;1.98;;;;;;;;;;5033941;28;20029;-60
2022/02/08 00:36:39;;;;;;;7.35;2.78;;;;;;;;;;5040785;28;20465;-60
2022/02/08 00:39:07;;;;;;;9.80;2.22;;;;;;;;;;5032218;28;20543;-59
2022/02/08 00:41:33;;;;;;;10.80;2.40;;;;;;;;;;5033655;28;20053;-60
2022/02/08 00:44:07;;;;;;;9.15;2.22;;;;;;;;;;5033046;28;20053;-60
2022/02/08 00:49:00;;;;;;;9.57;2.70;;;;;;;;;;5044185;28;20390;-58
2022/02/08 00:51:27;;;;;;;6.20;2.17;;;;;;;;;;5027900;28;20026;-59
2022/02/08 00:53:53;;;;;;;6.10;2.63;;;;;;;;;;5035017;28;20459;-59
2022/02/08 00:56:19;;;;;;;9.82;3.08;;;;;;;;;;5031776;28;20056;-59
2022/02/08 00:58:44;;;;;;;10.15;2.90;;;;;;;;;;5031822;28;20059;-59
2022/02/08 01:01:09;;;;;;;5.35;2.90;;;;;;;;;;5027813;28;20038;-59
2022/02/08 01:03:34;;;;;;;9.63;4.00;;;;;;;;;;5034473;28;20378;-59
2022/02/08 01:06:09;;;;;;;6.82;2.50;;;;;;;;;;5032766;28;20029;-56
2022/02/08 01:08:36;;;;;;;7.57;2.40;;;;;;;;;;5031332;28;20029;-59
2022/02/08 01:11:02;;;;;;;6.25;2.58;;;;;;;;;;5032613;28;20064;-58
2022/02/08 01:13:28;;;;;;;11.50;3.03;;;;;;;;;;5032672;28;20329;-59
2022/02/08 01:15:55;;;;;;;6.05;3.17;;;;;;;;;;5032039;28;20056;-59
2022/02/08 01:18:20;;;;;;;6.77;2.87;;;;;;;;;;5045169;28;20033;-58
2022/02/08 01:20:45;;;;;;;9.20;2.70;;;;;;;;;;5037051;28;20049;-59
2022/02/08 01:23:11;;;;;;;8.97;2.80;;;;;;;;;;5022111;28;20107;-58
2022/02/08 01:25:58;;;;;;;8.03;2.90;;;;;;;;;;5029894;28;20129;-60
2022/02/08 01:36:49;;;;;;;6.72;2.40;;;;;;;;;;5043666;28;20381;-60
2022/02/08 01:38:50;;;;;;;7.13;2.27;;;;;;;;;;5021607;28;20452;-59
2022/02/08 01:46:46;;;;;;;4.30;2.13;;;;;;;;;;5032498;28;20036;-59
2022/02/08 01:49:16;;;;;;;4.57;1.97;;;;;;;;;;5032063;28;20025;-59
2022/02/08 01:51:41;;;;;;;6.83;2.43;;;;;;;;;;5026027;28;20061;-58
2022/02/08 01:54:07;;;;;;;6.63;2.57;;;;;;;;;;5023597;28;20315;-59
2022/02/08 01:56:32;;;;;;;4.13;1.97;;;;;;;;;;5042495;28;20123;-58
2022/02/08 01:58:57;;;;;;;7.80;2.80;;;;;;;;;;5052207;28;20065;-59
2022/02/08 02:01:22;;;;;;;7.07;3.37;;;;;;;;;;5017683;28;20098;-59
2022/02/08 02:03:47;;;;;;;6.83;2.53;;;;;;;;;;5029931;28;20168;-59
2022/02/08 02:06:13;;;;;;;8.13;2.47;;;;;;;;;;5032623;28;20207;-58
2022/02/08 02:08:38;;;;;;;5.27;1.70;;;;;;;;;;5026719;28;20506;-60
2022/02/08 02:11:03;;;;;;;7.50;3.00;;;;;;;;;;5025360;28;20025;-59
2022/02/08 02:13:49;;;;;;;9.17;2.53;;;;;;;;;;5030360;28;20029;-56
2022/02/08 02:16:20;;;;;;;8.47;3.17;;;;;;;;;;5033205;28;20036;-58
2022/02/08 02:18:45;;;;;;;8.23;2.97;;;;;;;;;;5031090;28;20123;-58
2022/02/08 02:21:11;;;;;;;9.20;2.73;;;;;;;;;;5029396;28;20474;-57
2022/02/08 02:23:36;;;;;;;8.30;2.93;;;;;;;;;;5018313;28;20025;-59
2022/02/08 02:26:01;;;;;;;10.03;3.43;;;;;;;;;;5024281;28;20244;-60
2022/02/08 02:28:27;;;;;;;8.47;2.70;;;;;;;;;;5028375;28;20124;-59
2022/02/08 02:30:52;;;;;;;8.30;3.30;;;;;;;;;;5029295;28;20037;-60
2022/02/08 02:33:17;;;;;;;5.73;1.73;;;;;;;;;;5031193;28;20056;-60
2022/02/08 02:35:44;;;;;;;8.20;3.67;;;;;;;;;;5030035;28;20021;-59
2022/02/08 02:38:10;;;;;;;10.73;3.40;;;;;;;;;;5030985;28;20103;-59
2022/02/08 02:40:36;;;;;;;10.63;3.40;;;;;;;;;;5038413;28;20075;-59
2022/02/08 02:43:02;;;;;;;6.17;3.20;;;;;;;;;;5050631;28;20017;-57
2022/02/08 02:45:28;;;;;;;9.00;3.60;;;;;;;;;;5036640;28;20493;-59
2022/02/08 02:47:54;;;;;;;8.73;2.80;;;;;;;;;;5030923;28;20378;-59
2022/02/08 02:50:20;;;;;;;12.77;3.13;;;;;;;;;;5030957;28;20060;-59
2022/02/08 02:52:46;;;;;;;6.83;3.13;;;;;;;;;;5017982;28;20030;-59
2022/02/08 02:55:15;;;;;;;12.23;4.43;;;;;;;;;;5043554;28;20048;-58
2022/02/08 02:57:42;;;;;;;8.87;2.83;;;;;;;;;;5028296;28;20030;-58
2022/02/08 03:00:12;;;;;;;7.27;3.33;;;;;;;;;;5025285;28;20057;-59
2022/02/08 03:18:40;;;;;;;6.93;3.43;;;;;;;;;;5030602;28;20041;-58
2022/02/08 03:21:06;;;;;;;11.67;3.80;;;;;;;;;;5026898;28;20053;-59
2022/02/08 03:23:31;;;;;;;6.87;3.37;;;;;;;;;;5032369;28;20059;-59
2022/02/08 03:25:56;;;;;;;7.37;3.07;;;;;;;;;;5027815;28;20022;-59
2022/02/08 03:28:22;;;;;;;7.50;2.90;;;;;;;;;;5034105;28;20026;-59
2022/02/08 03:30:47;;;;;;;9.97;4.10;;;;;;;;;;5032382;28;20029;-59
2022/02/08 03:33:12;;;;;;;5.53;2.47;;;;;;;;;;5034437;28;20113;-60
2022/02/08 03:35:37;;;;;;;5.03;2.87;;;;;;;;;;5037865;28;20090;-58
2022/02/08 03:38:05;;;;;;;8.73;3.77;;;;;;;;;;5038261;28;20108;-59
2022/02/08 03:43:11;;;;;;;5.50;3.00;;;;;;;;;;5034732;28;20028;-59
2022/02/08 03:45:36;;;;;;;9.07;3.80;;;;;;;;;;5034512;28;20474;-59
2022/02/08 03:48:02;;;;;;;8.90;3.37;;;;;;;;;;5033723;28;20046;-59
2022/02/08 03:50:27;;;;;;;8.82;3.13;;;;;;;;;;5033010;28;20032;-60
2022/02/08 03:52:52;;;;;;;6.93;3.40;;;;;;;;;;5026770;28;20159;-59
2022/02/08 03:55:17;;;;;;;5.40;2.70;;;;;;;;;;5015277;28;20072;-59
2022/02/08 03:57:42;;;;;;;6.57;2.93;;;;;;;;;;5032865;28;20394;-59
2022/02/08 04:00:08;;;;;;;6.32;2.67;;;;;;;;;;5030907;28;20395;-59
2022/02/08 04:02:44;;;;;;;9.40;3.85;;;;;;;;;;5033777;28;20470;-59
2022/02/08 04:05:28;;;;;;;7.15;2.72;;;;;;;;;;5033769;28;20057;-59
2022/02/08 04:07:58;;;;;;;9.88;2.95;;;;;;;;;;5034031;28;20028;-59
2022/02/08 04:10:26;;;;;;;6.47;2.78;;;;;;;;;;5032073;28;20437;-60
2022/02/08 04:41:15;;;;;;;7.60;2.20;;;;;;;;;;5044784;28;20446;-59
2022/02/08 04:46:17;;;;;;;7.45;2.20;;;;;;;;;;5041089;28;20442;-58
2022/02/08 04:51:19;;;;;;;5.32;1.80;;;;;;;;;;5031340;28;20040;-59
2022/02/08 04:54:03;;;;;;;5.72;1.58;;;;;;;;;;5024781;28;20050;-60
2022/02/08 05:02:29;;;;;;;6.82;2.08;;;;;;;;;;5017669;28;20041;-60
2022/02/08 05:34:49;;;;;;;4.25;1.13;;;;;;;;;;5040622;28;20133;-59
2022/02/08 05:43:08;;;;;;;5.07;1.65;;;;;;;;;;5032305;28;20040;-59
2022/02/08 05:45:36;;;;;;;3.92;0.95;;;;;;;;;;5031615;28;20040;-58
2022/02/08 05:48:07;;;;;;;4.95;1.52;;;;;;;;;;5031589;28;20064;-59
2022/02/08 05:50:42;;;;;;;4.93;1.20;;;;;;;;;;5031757;28;20029;-58
2022/02/08 05:53:26;;;;;;;4.10;1.20;;;;;;;;;;5027566;28;20032;-58
2022/02/08 05:55:52;;;;;;;4.70;1.25;;;;;;;;;;5026570;28;20057;-58
2022/02/08 05:58:17;;;;;;;5.40;1.45;;;;;;;;;;5033934;28;20110;-60
2022/02/08 06:00:42;;;;;;;4.80;1.02;;;;;;;;;;5033950;28;20022;-59
2022/02/08 06:03:08;;;;;;;4.70;0.80;;;;;;;;;;5031480;28;20025;-59
2022/02/08 06:05:33;;;;;;;5.43;1.15;;;;;;;;;;5031899;28;20079;-59
2022/02/08 06:07:58;;;;;;;4.15;1.42;;;;;;;;;;5031614;28;20056;-60
2022/02/08 06:10:24;;;;;;;4.30;1.13;;;;;;;;;;5031529;28;20036;-59
2022/02/08 06:12:52;;;;;;;4.50;0.90;;;;;;;;;;5032219;28;20021;-59
2022/02/08 06:15:20;;;;;;;3.55;1.25;;;;;;;;;;5031850;28;20104;-59
2022/02/08 06:17:45;;;;;;;4.47;0.90;;;;;;;;;;5030985;28;20021;-59
2022/02/08 06:20:11;;;;;;;6.65;1.20;;;;;;;;;;5029151;28;20051;-62
2022/02/08 06:22:36;;;;;;;6.10;0.85;;;;;;;;;;5018750;28;20032;-60
2022/02/08 06:25:05;;;;;;;8.15;1.48;;;;;;;;;;5029757;28;20401;-60
2022/02/08 06:27:31;;;;;;;5.25;1.35;;;;;;;;;;5017544;28;20026;-58
2022/02/08 06:29:57;;;;;;;7.22;1.38;;;;;;;;;;5030086;28;20029;-60
2022/02/08 06:32:22;;;;;;;5.30;1.30;;;;;;;;;;5031289;28;20029;-59
2022/02/08 06:34:48;;;;;;;6.55;1.92;;;;;;;;;;5014139;28;20026;-60
2022/02/08 06:37:16;;;;;;;5.93;1.58;;;;;;;;;;5034960;28;20030;-59
2022/02/08 06:39:41;;;;;;;5.82;1.33;;;;;;;;;;5034753;28;20029;-59
2022/02/08 06:42:09;;;;;;;6.90;1.90;;;;;;;;;;5035332;28;20072;-60
2022/02/08 06:44:34;;;;;;;3.53;1.23;;;;;;;;;;5039936;28;20037;-59
2022/02/08 06:46:59;;;;;;;5.47;1.73;;;;;;;;;;5036046;28;20002;-59
2022/02/08 06:49:24;;;;;;;5.33;1.70;;;;;;;;;;5037602;28;20018;-59
2022/02/08 06:51:50;;;;;;;8.05;1.77;;;;;;;;;;5024196;28;20060;-60
2022/02/08 06:54:15;;;;;;;3.65;1.23;;;;;;;;;;5020556;28;20136;-59
2022/02/08 06:56:40;;;;;;;6.53;1.70;;;;;;;;;;5023324;28;20045;-60
2022/02/08 06:59:08;;;;;;;6.27;2.07;;;;;;;;;;5037177;28;20038;-60
2022/02/08 07:01:35;;;;;;;6.57;2.58;;;;;;;;;;5019757;28;20087;-58
2022/02/08 07:04:03;;;;;;;4.63;1.20;;;;;;;;;;5031631;28;20116;-59
2022/02/08 07:06:28;;;;;;;4.45;1.50;;;;;;;;;;5040629;28;20557;-58
2022/02/08 07:08:53;;;;;;;4.85;1.80;;;;;;;;;;5032490;28;20120;-60
2022/02/08 07:11:18;;;;;;;7.38;2.17;;;;;;;;;;5032259;28;20033;-59
2022/02/08 07:13:45;;;;;;;4.43;1.67;;;;;;;;;;5038497;28;20492;-59
2022/02/08 07:16:13;;;;;;;5.25;1.35;;;;;;;;;;5034456;28;20483;-59
2022/02/08 07:18:39;;;;;;;7.97;2.00;;;;;;;;;;5034036;28;20029;-60
2022/02/08 07:21:05;;;;;;;6.70;1.50;;;;;;;;;;5029791;28;20474;-60
2022/02/08 07:23:30;;;;;;;8.40;1.13;;;;;;;;;;5020008;28;20107;-61
2022/02/08 07:25:55;;;;;;;8.23;1.67;;;;;;;;;;5028569;28;20163;-60
2022/02/08 07:28:21;;;;;;;4.10;1.27;;;;;;;;;;5029981;28;20864;-61
2022/02/08 07:30:46;;;;;;;6.78;1.23;;;;;;;;;;5024486;28;20021;-60
2022/02/08 07:33:11;;;;;;;4.30;0.75;;;;;;;;;;5014931;28;20034;-59
2022/02/08 07:38:19;;;;;;;3.65;1.25;;;;;;;;;;5034867;28;20025;-61
2022/02/08 07:43:31;;;;;;;4.05;1.20;;;;;;;;;;5030277;28;20037;-60
2022/02/08 07:45:56;;;;;;;8.10;2.00;;;;;;;;;;5047838;28;20028;-61
2022/02/08 07:48:22;;;;;;;3.85;1.30;;;;;;;;;;5036472;28;20025;-57
2022/02/08 07:50:50;;;;;;;4.05;1.33;;;;;;;;;;5032641;28;20036;-61
2022/02/08 07:53:15;;;;;;;4.75;0.93;;;;;;;;;;5013416;28;20077;-60
2022/02/08 07:55:41;;;;;;;6.35;1.77;;;;;;;;;;5052378;28;20038;-61
2022/02/08 07:58:06;;;;;;;9.05;1.27;;;;;;;;;;5031974;28;20112;-59
2022/02/08 08:00:32;;;;;;;6.57;0.80;;;;;;;;;;5030997;28;20097;-61
2022/02/08 08:02:57;;;;;;;2.38;0.73;;;;;;;;;;5014293;28;20479;-60
2022/02/08 08:05:22;;;;;;;5.82;1.20;;;;;;;;;;5038882;28;20436;-60
2022/02/08 08:07:47;;;;;;;8.75;1.33;;;;;;;;;;5041612;28;20538;-61
2022/02/08 08:10:18;;;;;;;3.28;0.73;;;;;;;;;;5042300;28;20021;-60
2022/02/08 08:12:49;;;;;;;4.85;0.73;;;;;;;;;;5039555;28;20441;-61
2022/02/08 08:15:39;;;;;;;6.07;1.00;;;;;;;;;;5034177;28;20022;-60
2022/02/08 08:18:37;;;;;;;3.88;0.82;;;;;;;;;;5032090;28;20480;-61
2022/02/08 08:21:01;;;;;;;4.03;1.00;;;;;;;;;;5014676;28;20362;-60
2022/02/08 08:23:26;;;;;;;5.57;0.82;;;;;;;;;;5028845;28;20018;-59
2022/02/08 08:25:52;;;;;;;6.13;1.20;;;;;;;;;;5030269;28;20040;-60
2022/02/08 08:28:17;;;;;;;6.60;0.88;;;;;;;;;;5034892;28;20025;-61
2022/02/08 08:30:42;;;;;;;5.15;0.90;;;;;;;;;;5030122;28;20021;-60
2022/02/08 08:33:07;;;;;;;6.93;1.92;;;;;;;;;;5032652;28;20025;-61
2022/02/08 08:35:35;;;;;;;3.92;0.80;;;;;;;;;;5040458;28;20030;-60
2022/02/08 08:38:04;;;;;;;5.57;1.35;;;;;;;;;;5033045;28;20160;-60
2022/02/08 08:40:57;;;;;;;5.97;1.20;;;;;;;;;;5037385;28;20411;-60
2022/02/08 08:43:42;;;;;;;3.90;1.13;;;;;;;;;;5026269;28;20029;-59
2022/02/08 08:54:05;;;;;;;3.97;0.73;;;;;;;;;;5018436;28;20100;-59
2022/02/08 08:56:31;;;;;;;4.50;0.90;;;;;;;;;;5031738;28;20465;-58
2022/02/08 08:58:56;;;;;;;0.75;0.38;;;;;;;;;;5033015;28;20017;-61
2022/02/08 09:01:21;;;;;;;7.28;1.10;;;;;;;;;;5028202;28;20067;-60
2022/02/08 09:03:48;;;;;;;5.15;0.95;;;;;;;;;;5029228;28;20485;-62
2022/02/08 09:06:13;;;;;;;2.92;1.17;;;;;;;;;;5033040;28;20036;-60
2022/02/08 09:08:41;;;;;;;6.35;1.05;;;;;;;;;;5026216;28;20033;-60
2022/02/08 09:11:17;;;;;;;4.63;1.23;;;;;;;;;;5030956;28;20111;-60
2022/02/08 09:16:35;;;;;;;4.38;0.45;;;;;;;;;;5030682;28;20138;-60
2022/02/08 09:29:42;;;;;;;2.67;1.13;;;;;;;;;;5037792;28;20493;-60
2022/02/08 09:33:07;;;;;;;2.95;0.80;;;;;;;;;;5030377;28;20386;-60
2022/02/08 09:35:01;;;;;;;3.17;1.00;;;;;;;;;;5031199;28;20265;-60
2022/02/08 09:37:27;;;;;;;3.17;1.00;;;;;;;;;;5031084;28;20371;-60
2022/02/08 09:39:52;;;;;;;2.90;0.90;;;;;;;;;;5030746;28;20425;-60
2022/02/08 09:42:18;;;;;;;2.58;1.10;;;;;;;;;;5039923;28;20139;-60
2022/02/08 09:44:43;;;;;;;5.05;1.02;;;;;;;;;;5041827;28;20485;-60
2022/02/08 09:47:13;;;;;;;3.67;1.05;;;;;;;;;;5031228;28;20025;-59
2022/02/08 09:49:50;;;;;;;3.90;1.10;;;;;;;;;;5036913;28;20022;-61
2022/02/08 09:52:18;;;;;;;4.13;1.80;;;;;;;;;;5022876;28;20013;-60
2022/02/08 09:54:44;;;;;;;4.97;1.25;;;;;;;;;;5026727;28;20149;-60
2022/02/08 09:57:11;;;;;;;2.08;0.80;;;;;;;;;;5028726;28;20063;-61
2022/02/08 09:59:37;;;;;;;7.13;2.88;;;;;;;;;;5032041;28;20124;-60
2022/02/08 10:02:03;;;;;;;1.90;0.73;;;;;;;;;;5029978;28;20550;-60
2022/02/08 10:04:28;;;;;;;4.25;1.27;;;;;;;;;;5040591;28;20036;-61
2022/02/08 10:06:53;;;;;;;2.83;0.68;;;;;;;;;;5035848;28;20033;-60
2022/02/08 10:09:18;;;;;;;2.97;0.77;;;;;;;;;;5031080;28;20025;-60
2022/02/08 10:11:57;;;;;;;5.47;0.85;;;;;;;;;;5029629;28;20025;-60
2022/02/08 10:14:27;;;;;;;2.35;0.55;;;;;;;;;;5038579;28;20045;-60
2022/02/08 10:21:11;;;;;;;1.95;0.90;;;;;;;;;;5031139;28;20035;-60
2022/02/08 10:22:31;;;;;;;3.15;0.40;;;;;;;;;;5018989;28;20108;-61
2022/02/08 10:24:59;;;;;;;3.08;0.75;;;;;;;;;;5040471;28;20075;-60
2022/02/08 10:27:49;;;;;;;1.83;1.20;;;;;;;;;;5029794;28;20025;-60
2022/02/08 10:38:20;;;;;;;2.58;0.85;;;;;;;;;;5030812;28;20032;-60
2022/02/08 10:40:46;;;;;;;2.47;0.70;;;;;;;;;;5029840;28;20022;-59
2022/02/08 10:43:15;;;;;;;1.52;0.80;;;;;;;;;;5031198;28;20029;-58
2022/02/08 10:45:41;;;;;;;2.25;0.93;;;;;;;;;;5033575;28;20195;-59
2022/02/08 10:48:07;;;;;;;1.67;0.63;;;;;;;;;;5030917;28;20425;-59
2022/02/08 10:50:34;;;;;;;1.15;0.45;;;;;;;;;;5030698;28;20029;-60
2022/02/08 10:53:01;;;;;;;1.02;0.40;;;;;;;;;;5023050;28;20020;-59
2022/02/08 11:00:35;;;;;;;1.83;0.45;;;;;;;;;;5023236;28;20033;-59
2022/02/08 11:03:05;;;;;;;2.55;0.63;;;;;;;;;;5036915;28;20036;-60
2022/02/08 11:05:43;;;;;;;1.05;0.55;;;;;;;;;;5037880;28;20112;-60
2022/02/08 11:08:21;;;;;;;0.77;0.40;;;;;;;;;;5029747;28;20059;-61
2022/02/08 11:11:35;;;;;;;2.35;0.40;;;;;;;;;;5031659;28;20032;-59
2022/02/08 11:13:58;;;;;;;0.85;0.52;;;;;;;;;;5036136;28;20043;-61
2022/02/08 11:16:29;;;;;;;0.80;0.30;;;;;;;;;;5032448;28;20041;-60
2022/02/08 11:19:05;;;;;;;0.80;0.38;;;;;;;;;;5024859;28;20557;-60
2022/02/08 11:21:45;;;;;;;0.73;0.38;;;;;;;;;;5026562;28;20022;-61
2022/02/08 11:24:22;;;;;;;0.68;0.35;;;;;;;;;;5012015;28;20026;-59
2022/02/08 11:26:54;;;;;;;1.20;0.60;;;;;;;;;;5029410;28;20466;-60
2022/02/08 11:29:26;;;;;;;1.48;0.40;;;;;;;;;;5030606;28;20052;-61
2022/02/08 11:32:05;;;;;;;1.05;0.30;;;;;;;;;;5029655;28;20138;-60
2022/02/08 11:43:32;;;;;;;0.73;0.47;;;;;;;;;;5022381;28;20104;-61
2022/02/08 11:46:00;;;;;;;2.75;0.38;;;;;;;;;;5033648;28;20025;-59
2022/02/08 11:51:38;;;;;;;1.00;0.30;;;;;;;;;;5017186;28;20067;-59
2022/02/08 11:59:49;;;;;;;0.93;0.20;;;;;;;;;;5030185;28;20087;-60
2022/02/08 12:05:14;;;;;;;0.50;0.20;;;;;;;;;;5035126;28;20025;-60
2022/02/08 12:07:44;;;;;;;0.47;0.20;;;;;;;;;;5041676;28;20449;-61
2022/02/08 12:10:17;;;;;;;0.95;0.40;;;;;;;;;;5030936;28;20030;-61
2022/02/08 13:01:56;;;;;;;0.68;0.20;;;;;;;;;;5030285;28;20409;-59
2022/02/08 13:24:59;;;;;;;0.95;0.40;;;;;;;;;;5032966;28;20573;-60
2022/02/08 14:09:22;;;;;;;0.50;0.40;;;;;;;;;;5030137;28;20509;-61
2022/02/08 14:14:36;;;;;;;1.08;0.47;;;;;;;;;;5032194;28;20029;-59
2022/02/08 14:22:16;;;;;;;0.95;0.57;;;;;;;;;;5023292;28;20028;-60
2022/02/08 14:29:53;;;;;;;0.70;0.60;;;;;;;;;;5031513;28;20033;-60
2022/02/08 15:00:15;;;;;;;1.20;0.43;;;;;;;;;;5027433;28;20076;-61
2022/02/08 15:05:29;;;;;;;1.30;0.70;;;;;;;;;;5025973;28;20037;-59
2022/02/08 15:13:14;;;;;;;1.75;0.45;;;;;;;;;;5034756;28;20394;-59
2022/02/08 15:16:03;;;;;;;1.25;0.50;;;;;;;;;;5030896;28;20128;-59
2022/02/08 15:18:31;;;;;;;1.35;0.30;;;;;;;;;;5029181;28;20039;-60
2022/02/08 15:20:58;;;;;;;0.65;0.40;;;;;;;;;;5029502;28;20177;-60
2022/02/08 15:23:23;;;;;;;1.02;0.30;;;;;;;;;;5022122;28;20410;-60
2022/02/08 15:25:51;;;;;;;0.50;0.30;;;;;;;;;;5034244;28;20041;-66
2022/02/08 15:28:16;;;;;;;0.35;0.30;;;;;;;;;;5034839;28;20033;-60
2022/02/08 15:30:43;;;;;;;1.15;0.55;;;;;;;;;;5026021;28;20048;-59
2022/02/08 15:33:10;;;;;;;1.30;0.50;;;;;;;;;;5033344;28;20041;-62
2022/02/08 15:35:36;;;;;;;0.77;0.30;;;;;;;;;;5033230;28;20493;-63
2022/02/08 15:38:02;;;;;;;1.98;0.70;;;;;;;;;;5034008;28;20029;-61
2022/02/08 15:40:27;;;;;;;1.60;0.60;;;;;;;;;;5033177;28;20026;-61
2022/02/08 15:42:52;;;;;;;1.60;0.50;;;;;;;;;;5033905;28;20026;-61
2022/02/08 15:45:25;;;;;;;1.27;0.43;;;;;;;;;;5034036;28;20555;-60
2022/02/08 15:47:51;;;;;;;1.55;0.60;;;;;;;;;;5023570;28;20021;-61
2022/02/08 15:50:25;;;;;;;0.82;0.63;;;;;;;;;;5032496;28;20033;-61
2022/02/08 16:08:58;;;;;;;1.98;0.90;;;;;;;;;;5028324;28;20022;-60
2022/02/08 16:15:02;;;;;;;1.95;1.23;;;;;;;;;;5028362;28;20117;-61
2022/02/08 16:46:57;;;;;;;2.58;1.45;;;;;;;;;;5030001;28;20521;-58
2022/02/08 16:52:15;;;;;;;2.53;1.60;;;;;;;;;;5026288;28;20048;-58
2022/02/08 16:54:25;;;;;;;1.50;1.30;;;;;;;;;;5027054;28;20137;-61
2022/02/08 16:59:23;;;;;;;2.00;1.80;;;;;;;;;;5026147;28;20034;-58
2022/02/08 17:01:48;;;;;;;1.85;1.52;;;;;;;;;;5013717;28;20117;-59
2022/02/08 17:04:13;;;;;;;2.17;1.98;;;;;;;;;;5019506;28;20117;-60
2022/02/08 17:06:39;;;;;;;2.05;1.42;;;;;;;;;;5031126;28;20036;-57
2022/02/08 17:09:08;;;;;;;2.53;1.70;;;;;;;;;;5024192;28;20028;-59
2022/02/08 17:11:40;;;;;;;2.75;2.22;;;;;;;;;;5026449;28;20567;-60
2022/02/08 17:16:55;;;;;;;3.72;2.00;;;;;;;;;;5030735;28;20063;-59
2022/02/08 17:19:45;;;;;;;2.25;2.10;;;;;;;;;;5031694;28;20021;-60
2022/02/08 17:46:49;;;;;;;4.20;3.47;;;;;;;;;;5028920;28;20048;-61
2022/02/08 17:49:14;;;;;;;4.55;3.67;;;;;;;;;;5013937;28;20092;-60
2022/02/08 17:51:39;;;;;;;4.47;3.55;;;;;;;;;;5015136;28;20489;-61
2022/02/08 17:54:05;;;;;;;5.13;3.90;;;;;;;;;;5028635;28;20049;-60
2022/02/08 17:56:30;;;;;;;5.93;3.67;;;;;;;;;;5032021;28;20037;-61
2022/02/08 17:58:55;;;;;;;4.57;4.18;;;;;;;;;;5026328;28;20033;-60
2022/02/08 18:01:22;;;;;;;4.90;4.00;;;;;;;;;;5016233;28;20033;-61
2022/02/08 18:03:47;;;;;;;3.78;3.45;;;;;;;;;;5029293;28;20033;-62
2022/02/08 18:06:12;;;;;;;6.47;4.95;;;;;;;;;;5028578;28;20022;-61
2022/02/08 18:08:38;;;;;;;5.65;5.07;;;;;;;;;;5026326;28;20025;-61
2022/02/08 18:11:04;;;;;;;5.55;4.25;;;;;;;;;;5023904;28;20107;-60
2022/02/08 18:13:31;;;;;;;5.68;5.07;;;;;;;;;;5026653;28;20470;-60
2022/02/08 18:15:58;;;;;;;5.90;4.88;;;;;;;;;;5029620;28;20029;-61
2022/02/08 18:18:27;;;;;;;5.68;4.65;;;;;;;;;;5028793;28;20124;-61
2022/02/08 18:21:09;;;;;;;8.20;4.35;;;;;;;;;;5016070;28;20080;-61
2022/02/08 18:56:19;;;;;;;8.30;6.00;;;;;;;;;;5022383;28;20081;-63
2022/02/08 19:09:54;;;;;;;9.45;6.88;;;;;;;;;;5024024;28;20482;-63
2022/02/08 19:12:30;;;;;;;7.72;6.90;;;;;;;;;;5028870;28;20462;-62
2022/02/08 19:20:30;;;;;;;7.88;6.40;;;;;;;;;;5028916;28;20059;-64
2022/02/08 19:22:56;;;;;;;8.10;5.68;;;;;;;;;;5013367;28;20026;-64
2022/02/08 19:25:21;;;;;;;7.70;6.43;;;;;;;;;;5031188;28;20445;-63
2022/02/08 19:27:46;;;;;;;6.65;5.95;;;;;;;;;;5015278;28;20022;-64
2022/02/08 19:30:12;;;;;;;7.28;6.13;;;;;;;;;;5023524;28;20033;-64
2022/02/08 19:32:37;;;;;;;8.05;6.78;;;;;;;;;;5032409;28;20021;-63
2022/02/08 19:35:03;;;;;;;7.32;5.78;;;;;;;;;;5034572;28;20048;-62
2022/02/08 19:37:29;;;;;;;6.93;5.88;;;;;;;;;;5024326;28;20053;-63
2022/02/08 19:39:55;;;;;;;6.88;6.18;;;;;;;;;;5035228;28;20014;-63
2022/02/08 19:42:20;;;;;;;7.68;6.85;;;;;;;;;;5017144;28;20018;-64
2022/02/08 19:44:54;;;;;;;8.77;6.60;;;;;;;;;;5020577;28;20029;-64
2022/02/08 19:47:19;;;;;;;4.75;4.32;;;;;;;;;;5033667;28;20040;-64
2022/02/08 19:49:44;;;;;;;7.20;5.72;;;;;;;;;;5027433;28;20030;-65
2022/02/08 19:52:09;;;;;;;8.02;6.57;;;;;;;;;;5010041;28;20026;-64
2022/02/08 19:54:43;;;;;;;6.38;5.78;;;;;;;;;;5014610;28;20057;-64
2022/02/08 19:57:18;;;;;;;6.80;6.07;;;;;;;;;;5014211;28;20482;-63
2022/02/08 19:59:44;;;;;;;9.07;6.70;;;;;;;;;;5025681;28;20041;-63
2022/02/08 20:02:13;;;;;;;7.93;7.07;;;;;;;;;;5030147;28;20367;-64
2022/02/08 20:04:38;;;;;;;7.03;6.30;;;;;;;;;;5027378;28;20095;-63
2022/02/08 20:07:05;;;;;;;7.68;6.35;;;;;;;;;;5033312;28;20474;-63
2022/02/08 20:09:30;;;;;;;6.75;6.13;;;;;;;;;;5039779;28;20078;-64
2022/02/08 20:11:56;;;;;;;8.43;6.80;;;;;;;;;;5036336;28;20036;-64
2022/02/08 20:14:22;;;;;;;7.13;6.25;;;;;;;;;;5025464;28;20063;-65
2022/02/08 20:16:48;;;;;;;11.02;9.38;;;;;;;;;;5032265;28;20045;-65
2022/02/08 20:19:15;;;;;;;8.77;7.93;;;;;;;;;;5038182;28;20025;-64
2022/02/08 20:21:41;;;;;;;8.13;7.22;;;;;;;;;;5037935;28;20025;-62
2022/02/08 20:24:09;;;;;;;9.02;7.55;;;;;;;;;;5034926;28;20401;-62
2022/02/08 20:29:09;;;;;;;8.10;6.65;;;;;;;;;;5020628;28;20021;-62
2022/02/08 20:31:34;;;;;;;9.43;8.10;;;;;;;;;;5042832;28;20030;-63
2022/02/08 20:34:00;;;;;;;10.48;8.20;;;;;;;;;;5033454;28;20021;-63
2022/02/08 20:36:25;;;;;;;9.15;8.07;;;;;;;;;;5032997;28;20033;-63
2022/02/08 20:38:50;;;;;;;9.63;8.25;;;;;;;;;;5039300;28;20053;-63
2022/02/08 20:41:16;;;;;;;9.38;7.05;;;;;;;;;;5033692;28;20026;-63
2022/02/08 20:43:41;;;;;;;9.90;8.77;;;;;;;;;;5032168;28;20171;-63
2022/02/08 20:46:08;;;;;;;9.68;8.65;;;;;;;;;;5030215;28;20112;-62
2022/02/08 20:48:34;;;;;;;9.57;8.35;;;;;;;;;;5033273;28;20025;-63
2022/02/08 20:51:02;;;;;;;10.05;8.27;;;;;;;;;;5013882;28;20033;-62
2022/02/08 20:53:46;;;;;;;9.73;7.93;;;;;;;;;;5028772;28;20478;-63
2022/02/08 20:56:26;;;;;;;7.22;6.28;;;;;;;;;;5036111;28;20033;-62
2022/02/08 21:01:26;;;;;;;8.57;7.22;;;;;;;;;;5045312;28;20422;-63
2022/02/08 21:03:58;;;;;;;7.55;6.75;;;;;;;;;;5029684;28;20029;-63
2022/02/08 21:06:24;;;;;;;6.82;6.20;;;;;;;;;;5035508;28;20043;-63
2022/02/08 21:08:49;;;;;;;7.35;6.63;;;;;;;;;;5020577;28;20534;-63
2022/02/08 21:11:15;;;;;;;7.70;6.18;;;;;;;;;;5038290;28;20017;-63
2022/02/08 21:16:06;;;;;;;8.50;6.65;;;;;;;;;;5023861;28;20458;-64
2022/02/08 21:18:31;;;;;;;5.20;4.35;;;;;;;;;;5019327;28;20438;-62
2022/02/08 21:20:56;;;;;;;9.95;8.27;;;;;;;;;;5026012;28;20022;-63
2022/02/08 21:23:21;;;;;;;7.85;7.03;;;;;;;;;;5018655;28;20108;-63
2022/02/08 21:25:49;;;;;;;9.63;7.90;;;;;;;;;;5031499;28;20382;-63
2022/02/08 21:28:24;;;;;;;9.73;7.57;;;;;;;;;;5027536;28;20050;-63
2022/02/08 21:31:18;;;;;;;9.05;7.22;;;;;;;;;;5022023;28;20072;-63
2022/02/08 21:49:44;;;;;;;7.68;6.47;;;;;;;;;;5044374;28;20094;-63
2022/02/08 21:52:23;;;;;;;6.45;5.65;;;;;;;;;;5022219;28;20470;-63
2022/02/08 21:54:48;;;;;;;7.38;6.68;;;;;;;;;;5025392;28;20494;-63
2022/02/08 21:57:18;;;;;;;7.28;6.63;;;;;;;;;;5027945;28;20029;-62
2022/02/08 21:59:43;;;;;;;6.32;5.72;;;;;;;;;;5044853;28;20036;-62
2022/02/08 22:02:08;;;;;;;7.75;5.25;;;;;;;;;;5034423;28;20497;-62
2022/02/08 22:04:34;;;;;;;5.82;4.90;;;;;;;;;;5027717;28;20159;-64
2022/02/08 22:07:00;;;;;;;6.20;5.63;;;;;;;;;;5014688;28;20026;-63
2022/02/08 22:09:28;;;;;;;5.60;5.00;;;;;;;;;;5022724;28;20020;-63
2022/02/08 22:23:11;;;;;;;5.70;5.05;;;;;;;;;;5021628;28;20080;-61
2022/02/08 22:25:44;;;;;;;5.07;4.57;;;;;;;;;;5030141;28;20025;-62
2022/02/08 22:28:19;;;;;;;6.50;5.80;;;;;;;;;;5026804;28;20029;-62
2022/02/08 22:33:26;;;;;;;5.78;5.18;;;;;;;;;;5030858;28;20040;-62
2022/02/08 22:35:54;;;;;;;5.20;4.70;;;;;;;;;;5029769;28;20029;-61
2022/02/08 22:38:47;;;;;;;5.32;4.82;;;;;;;;;;5028508;28;20029;-62
2022/02/08 22:41:12;;;;;;;6.20;5.57;;;;;;;;;;5031288;28;20532;-61
2022/02/08 22:43:45;;;;;;;5.38;4.88;;;;;;;;;;5031507;28;20021;-61
2022/02/08 22:46:13;;;;;;;5.32;4.82;;;;;;;;;;5031285;28;20021;-59
2022/02/08 22:48:39;;;;;;;5.38;4.88;;;;;;;;;;5040112;28;20037;-61
2022/02/08 22:51:04;;;;;;;5.20;4.75;;;;;;;;;;5043041;28;20037;-61
2022/02/08 22:53:30;;;;;;;6.90;6.20;;;;;;;;;;5031840;28;20024;-61
2022/02/08 22:55:56;;;;;;;5.45;4.93;;;;;;;;;;5033433;28;20041;-60
2022/02/08 22:58:22;;;;;;;6.18;5.68;;;;;;;;;;5032336;28;20048;-60
2022/02/08 23:00:47;;;;;;;5.57;5.07;;;;;;;;;;5030556;28;20486;-60
2022/02/08 23:03:13;;;;;;;6.30;5.38;;;;;;;;;;5031035;28;20020;-59
2022/02/08 23:05:38;;;;;;;6.13;5.07;;;;;;;;;;5030574;28;20022;-60
2022/02/08 23:08:04;;;;;;;6.10;5.53;;;;;;;;;;5036864;28;20120;-61
2022/02/08 23:13:17;;;;;;;6.35;5.63;;;;;;;;;;5030768;28;20048;-61